sensor_id;sensor_type;location;lat;lon;timestamp;temperature;humidity
15160;DHT22;7680;48.800;9.680;2023-11-18T00:04:53;5.80;99.90
15160;DHT22;7680;48.800;9.680;2023-11-18T00:09:57;5.80;99.90
15160;DHT22;7680;48.800;9.680;2023-11-18T00:15:01;5.80;99.90
15160;DHT22;7680;48.800;9.680;2023-11-18T00:20:06;5.80;99.90
15160;DHT22;7680;48.800;9.680;2023-11-18T00:25:15;5.80;99.90
15160;DHT22;7680;48.800;9.680;2023-11-18T00:30:18;5.80;99.90
15160;DHT22;7680;48.800;9.680;2023-11-18T00:35:22;5.80;99.90
15160;DHT22;7680;48.800;9.680;2023-11-18T00:40:26;5.80;99.90
15160;DHT22;7680;48.800;9.680;2023-11-18T00:45:31;5.80;99.90
15160;DHT22;7680;48.800;9.680;2023-11-18T00:50:34;5.80;99.90
15160;DHT22;7680;48.800;9.680;2023-11-18T00:55:39;5.80;99.90
15160;DHT22;7680;48.800;9.680;2023-11-18T01:00:43;5.80;99.90
15160;DHT22;7680;48.800;9.680;2023-11-18T01:05:46;5.80;99.90
15160;DHT22;7680;48.800;9.680;2023-11-18T01:10:50;5.80;99.90
15160;DHT22;7680;48.800;9.680;2023-11-18T01:15:54;5.80;99.90
15160;DHT22;7680;48.800;9.680;2023-11-18T01:20:57;5.80;99.90
15160;DHT22;7680;48.800;9.680;2023-11-18T01:26:02;5.80;99.90
15160;DHT22;7680;48.800;9.680;2023-11-18T01:31:06;5.80;99.90
15160;DHT22;7680;48.800;9.680;2023-11-18T01:36:11;5.80;99.90
15160;DHT22;7680;48.800;9.680;2023-11-18T01:41:16;5.80;99.90
15160;DHT22;7680;48.800;9.680;2023-11-18T01:46:20;5.70;99.90
15160;DHT22;7680;48.800;9.680;2023-11-18T01:51:25;5.70;99.90
15160;DHT22;7680;48.800;9.680;2023-11-18T01:56:30;5.70;99.90
15160;DHT22;7680;48.800;9.680;2023-11-18T02:01:34;5.70;99.90
15160;DHT22;7680;48.800;9.680;2023-11-18T02:06:38;5.60;99.90
15160;DHT22;7680;48.800;9.680;2023-11-18T02:11:48;5.70;99.90
15160;DHT22;7680;48.800;9.680;2023-11-18T02:16:59;5.60;99.90
15160;DHT22;7680;48.800;9.680;2023-11-18T02:22:03;5.60;99.90
15160;DHT22;7680;48.800;9.680;2023-11-18T02:27:11;5.70;99.90
15160;DHT22;7680;48.800;9.680;2023-11-18T02:32:18;5.60;99.90
15160;DHT22;7680;48.800;9.680;2023-11-18T02:37:26;5.70;99.90
15160;DHT22;7680;48.800;9.680;2023-11-18T02:42:31;5.70;99.90
15160;DHT22;7680;48.800;9.680;2023-11-18T02:47:35;5.70;99.90
15160;DHT22;7680;48.800;9.680;2023-11-18T02:52:38;5.70;99.90
15160;DHT22;7680;48.800;9.680;2023-11-18T02:57:42;5.60;99.90
15160;DHT22;7680;48.800;9.680;2023-11-18T03:02:45;5.60;99.90
15160;DHT22;7680;48.800;9.680;2023-11-18T03:07:49;5.60;99.90
15160;DHT22;7680;48.800;9.680;2023-11-18T03:12:56;5.60;99.90
15160;DHT22;7680;48.800;9.680;2023-11-18T03:17:59;5.50;99.90
15160;DHT22;7680;48.800;9.680;2023-11-18T03:23:03;5.50;99.90
15160;DHT22;7680;48.800;9.680;2023-11-18T03:28:10;5.40;99.90
15160;DHT22;7680;48.800;9.680;2023-11-18T03:33:13;5.40;99.90
15160;DHT22;7680;48.800;9.680;2023-11-18T03:38:17;5.40;99.90
15160;DHT22;7680;48.800;9.680;2023-11-18T03:43:21;5.40;99.90
15160;DHT22;7680;48.800;9.680;2023-11-18T03:48:24;5.40;99.90
15160;DHT22;7680;48.800;9.680;2023-11-18T03:53:28;5.40;99.90
15160;DHT22;7680;48.800;9.680;2023-11-18T03:58:32;5.40;99.90
15160;DHT22;7680;48.800;9.680;2023-11-18T04:03:36;5.40;99.90
15160;DHT22;7680;48.800;9.680;2023-11-18T04:08:42;5.30;99.90
15160;DHT22;7680;48.800;9.680;2023-11-18T04:13:47;5.30;99.90
15160;DHT22;7680;48.800;9.680;2023-11-18T04:18:50;5.30;99.90
15160;DHT22;7680;48.800;9.680;2023-11-18T04:23:53;5.10;99.90
15160;DHT22;7680;48.800;9.680;2023-11-18T04:28:58;5.20;99.90
15160;DHT22;7680;48.800;9.680;2023-11-18T04:34:01;5.20;99.90
15160;DHT22;7680;48.800;9.680;2023-11-18T04:39:06;5.20;99.90
15160;DHT22;7680;48.800;9.680;2023-11-18T04:44:10;5.20;99.90
15160;DHT22;7680;48.800;9.680;2023-11-18T04:49:14;5.30;99.90
15160;DHT22;7680;48.800;9.680;2023-11-18T04:54:18;5.20;99.90
15160;DHT22;7680;48.800;9.680;2023-11-18T04:59:23;5.20;99.90
15160;DHT22;7680;48.800;9.680;2023-11-18T05:04:26;5.30;99.90
15160;DHT22;7680;48.800;9.680;2023-11-18T05:09:29;5.30;99.90
15160;DHT22;7680;48.800;9.680;2023-11-18T05:14:35;5.30;99.90
15160;DHT22;7680;48.800;9.680;2023-11-18T05:19:39;5.30;99.90
15160;DHT22;7680;48.800;9.680;2023-11-18T05:24:43;5.40;99.90
15160;DHT22;7680;48.800;9.680;2023-11-18T05:29:48;5.20;99.90
15160;DHT22;7680;48.800;9.680;2023-11-18T05:34:56;5.30;99.90
15160;DHT22;7680;48.800;9.680;2023-11-18T05:40:00;5.30;99.90
15160;DHT22;7680;48.800;9.680;2023-11-18T05:45:10;5.20;99.90
15160;DHT22;7680;48.800;9.680;2023-11-18T05:50:19;5.20;99.90
15160;DHT22;7680;48.800;9.680;2023-11-18T05:55:22;5.10;99.90
15160;DHT22;7680;48.800;9.680;2023-11-18T06:00:27;5.10;99.90
15160;DHT22;7680;48.800;9.680;2023-11-18T06:05:41;5.10;99.90
15160;DHT22;7680;48.800;9.680;2023-11-18T06:10:45;5.10;99.90
15160;DHT22;7680;48.800;9.680;2023-11-18T06:15:49;5.20;99.90
15160;DHT22;7680;48.800;9.680;2023-11-18T06:20:53;5.10;99.90
15160;DHT22;7680;48.800;9.680;2023-11-18T06:25:56;5.00;99.90
15160;DHT22;7680;48.800;9.680;2023-11-18T06:31:04;5.00;99.90
15160;DHT22;7680;48.800;9.680;2023-11-18T06:36:17;5.00;99.90
15160;DHT22;7680;48.800;9.680;2023-11-18T06:41:22;4.90;99.90
15160;DHT22;7680;48.800;9.680;2023-11-18T06:46:30;5.00;99.90
15160;DHT22;7680;48.800;9.680;2023-11-18T06:51:36;5.10;99.90
15160;DHT22;7680;48.800;9.680;2023-11-18T06:56:41;5.00;99.90
15160;DHT22;7680;48.800;9.680;2023-11-18T07:01:47;4.90;99.90
15160;DHT22;7680;48.800;9.680;2023-11-18T07:06:50;4.90;99.90
15160;DHT22;7680;48.800;9.680;2023-11-18T07:11:53;5.00;99.90
15160;DHT22;7680;48.800;9.680;2023-11-18T07:16:59;5.10;99.90
15160;DHT22;7680;48.800;9.680;2023-11-18T07:22:02;5.20;99.90
15160;DHT22;7680;48.800;9.680;2023-11-18T07:27:08;5.20;99.90
15160;DHT22;7680;48.800;9.680;2023-11-18T07:32:14;5.40;99.90
15160;DHT22;7680;48.800;9.680;2023-11-18T07:37:17;5.50;99.90
15160;DHT22;7680;48.800;9.680;2023-11-18T07:42:20;5.60;99.90
15160;DHT22;7680;48.800;9.680;2023-11-18T07:47:25;5.60;99.90
15160;DHT22;7680;48.800;9.680;2023-11-18T07:52:29;5.60;99.90
15160;DHT22;7680;48.800;9.680;2023-11-18T07:57:32;5.60;99.90
15160;DHT22;7680;48.800;9.680;2023-11-18T08:02:39;5.80;99.90
15160;DHT22;7680;48.800;9.680;2023-11-18T08:07:42;6.10;99.90
15160;DHT22;7680;48.800;9.680;2023-11-18T08:12:47;6.40;99.90
15160;DHT22;7680;48.800;9.680;2023-11-18T08:17:52;6.70;99.90
15160;DHT22;7680;48.800;9.680;2023-11-18T08:22:55;6.60;99.90
15160;DHT22;7680;48.800;9.680;2023-11-18T08:27:58;6.60;99.90
15160;DHT22;7680;48.800;9.680;2023-11-18T08:33:03;6.50;99.90
15160;DHT22;7680;48.800;9.680;2023-11-18T08:38:10;6.60;99.90
15160;DHT22;7680;48.800;9.680;2023-11-18T08:43:14;6.70;99.90
15160;DHT22;7680;48.800;9.680;2023-11-18T08:48:20;6.60;99.90
15160;DHT22;7680;48.800;9.680;2023-11-18T08:53:24;6.70;99.90
15160;DHT22;7680;48.800;9.680;2023-11-18T08:58:28;6.70;99.90
15160;DHT22;7680;48.800;9.680;2023-11-18T09:03:37;6.70;99.90
15160;DHT22;7680;48.800;9.680;2023-11-18T09:08:47;6.80;99.90
15160;DHT22;7680;48.800;9.680;2023-11-18T09:13:55;6.80;99.90
15160;DHT22;7680;48.800;9.680;2023-11-18T09:19:04;6.80;99.90
15160;DHT22;7680;48.800;9.680;2023-11-18T09:24:08;6.90;99.90
15160;DHT22;7680;48.800;9.680;2023-11-18T09:29:14;6.90;99.90
15160;DHT22;7680;48.800;9.680;2023-11-18T09:34:21;7.10;99.90
15160;DHT22;7680;48.800;9.680;2023-11-18T09:39:29;7.20;99.90
15160;DHT22;7680;48.800;9.680;2023-11-18T09:44:39;7.30;99.90
15160;DHT22;7680;48.800;9.680;2023-11-18T09:49:45;7.50;99.90
15160;DHT22;7680;48.800;9.680;2023-11-18T09:55:00;7.60;99.90
15160;DHT22;7680;48.800;9.680;2023-11-18T10:00:06;7.60;99.90
15160;DHT22;7680;48.800;9.680;2023-11-18T10:05:23;7.70;99.90
15160;DHT22;7680;48.800;9.680;2023-11-18T10:10:29;7.90;99.90
15160;DHT22;7680;48.800;9.680;2023-11-18T10:15:39;8.00;99.90
15160;DHT22;7680;48.800;9.680;2023-11-18T10:20:47;8.20;99.90
15160;DHT22;7680;48.800;9.680;2023-11-18T10:25:54;8.30;99.90
15160;DHT22;7680;48.800;9.680;2023-11-18T10:31:00;8.40;99.90
15160;DHT22;7680;48.800;9.680;2023-11-18T10:36:18;8.40;99.90
15160;DHT22;7680;48.800;9.680;2023-11-18T10:41:24;8.50;99.90
15160;DHT22;7680;48.800;9.680;2023-11-18T10:46:27;8.50;99.90
15160;DHT22;7680;48.800;9.680;2023-11-18T10:51:33;8.50;99.90
15160;DHT22;7680;48.800;9.680;2023-11-18T10:56:37;8.50;99.90
15160;DHT22;7680;48.800;9.680;2023-11-18T11:01:40;8.60;99.90
15160;DHT22;7680;48.800;9.680;2023-11-18T11:06:47;8.60;99.90
15160;DHT22;7680;48.800;9.680;2023-11-18T11:11:56;8.50;99.90
15160;DHT22;7680;48.800;9.680;2023-11-18T11:17:06;8.50;99.90
15160;DHT22;7680;48.800;9.680;2023-11-18T11:22:18;8.50;99.90
15160;DHT22;7680;48.800;9.680;2023-11-18T11:27:33;8.40;99.90
15160;DHT22;7680;48.800;9.680;2023-11-18T11:32:49;8.50;99.90
15160;DHT22;7680;48.800;9.680;2023-11-18T11:37:56;8.50;99.90
15160;DHT22;7680;48.800;9.680;2023-11-18T11:43:08;8.50;99.90
15160;DHT22;7680;48.800;9.680;2023-11-18T11:48:12;8.40;99.90
15160;DHT22;7680;48.800;9.680;2023-11-18T11:53:21;8.60;99.90
15160;DHT22;7680;48.800;9.680;2023-11-18T11:58:26;8.60;99.90
15160;DHT22;7680;48.800;9.680;2023-11-18T12:03:31;8.70;99.90
15160;DHT22;7680;48.800;9.680;2023-11-18T12:08:41;8.70;99.90
15160;DHT22;7680;48.800;9.680;2023-11-18T12:14:03;8.60;99.90
15160;DHT22;7680;48.800;9.680;2023-11-18T12:19:31;8.60;99.90
15160;DHT22;7680;48.800;9.680;2023-11-18T12:24:39;8.70;99.90
15160;DHT22;7680;48.800;9.680;2023-11-18T12:29:44;8.60;99.90
15160;DHT22;7680;48.800;9.680;2023-11-18T12:34:50;8.60;99.90
15160;DHT22;7680;48.800;9.680;2023-11-18T12:46:34;8.60;99.90
15160;DHT22;7680;48.800;9.680;2023-11-18T12:51:52;8.60;99.90
15160;DHT22;7680;48.800;9.680;2023-11-18T12:57:00;8.80;99.90
15160;DHT22;7680;48.800;9.680;2023-11-18T13:02:08;9.00;99.90
15160;DHT22;7680;48.800;9.680;2023-11-18T13:07:15;8.70;99.90
15160;DHT22;7680;48.800;9.680;2023-11-18T13:12:19;8.60;99.90
15160;DHT22;7680;48.800;9.680;2023-11-18T13:17:26;8.60;99.90
15160;DHT22;7680;48.800;9.680;2023-11-18T13:22:30;8.50;99.90
15160;DHT22;7680;48.800;9.680;2023-11-18T13:27:46;8.60;99.90
15160;DHT22;7680;48.800;9.680;2023-11-18T13:32:51;8.50;99.90
15160;DHT22;7680;48.800;9.680;2023-11-18T13:37:54;8.40;99.90
15160;DHT22;7680;48.800;9.680;2023-11-18T13:43:02;8.40;99.90
15160;DHT22;7680;48.800;9.680;2023-11-18T13:48:08;8.40;99.90
15160;DHT22;7680;48.800;9.680;2023-11-18T13:53:11;8.40;99.90
15160;DHT22;7680;48.800;9.680;2023-11-18T13:58:17;8.30;99.90
15160;DHT22;7680;48.800;9.680;2023-11-18T14:03:22;8.30;99.90
15160;DHT22;7680;48.800;9.680;2023-11-18T14:08:26;8.30;99.90
15160;DHT22;7680;48.800;9.680;2023-11-18T14:13:30;8.30;99.90
15160;DHT22;7680;48.800;9.680;2023-11-18T14:18:34;8.30;99.90
15160;DHT22;7680;48.800;9.680;2023-11-18T14:23:38;8.30;99.90
15160;DHT22;7680;48.800;9.680;2023-11-18T14:28:42;8.20;99.90
15160;DHT22;7680;48.800;9.680;2023-11-18T14:33:46;8.20;99.90
15160;DHT22;7680;48.800;9.680;2023-11-18T14:38:50;8.10;99.90
15160;DHT22;7680;48.800;9.680;2023-11-18T14:43:53;8.00;99.90
15160;DHT22;7680;48.800;9.680;2023-11-18T14:48:57;8.00;99.90
15160;DHT22;7680;48.800;9.680;2023-11-18T14:54:01;8.10;99.90
15160;DHT22;7680;48.800;9.680;2023-11-18T14:59:04;8.30;99.90
15160;DHT22;7680;48.800;9.680;2023-11-18T15:04:11;8.00;99.90
15160;DHT22;7680;48.800;9.680;2023-11-18T15:09:14;8.00;99.90
15160;DHT22;7680;48.800;9.680;2023-11-18T15:14:17;7.80;99.90
15160;DHT22;7680;48.800;9.680;2023-11-18T15:19:21;7.90;99.90
15160;DHT22;7680;48.800;9.680;2023-11-18T15:24:24;8.10;99.90
15160;DHT22;7680;48.800;9.680;2023-11-18T15:29:28;8.00;99.90
15160;DHT22;7680;48.800;9.680;2023-11-18T15:34:40;7.80;99.90
15160;DHT22;7680;48.800;9.680;2023-11-18T15:39:44;8.00;99.90
15160;DHT22;7680;48.800;9.680;2023-11-18T15:44:47;7.90;99.90
15160;DHT22;7680;48.800;9.680;2023-11-18T15:49:51;7.90;99.90
15160;DHT22;7680;48.800;9.680;2023-11-18T15:54:54;7.90;99.90
15160;DHT22;7680;48.800;9.680;2023-11-18T15:59:58;7.80;99.90
15160;DHT22;7680;48.800;9.680;2023-11-18T16:05:03;7.70;99.90
15160;DHT22;7680;48.800;9.680;2023-11-18T16:10:07;7.60;99.90
15160;DHT22;7680;48.800;9.680;2023-11-18T16:15:11;7.50;99.90
15160;DHT22;7680;48.800;9.680;2023-11-18T16:20:18;7.50;99.90
15160;DHT22;7680;48.800;9.680;2023-11-18T16:25:23;7.50;99.90
15160;DHT22;7680;48.800;9.680;2023-11-18T16:30:29;7.50;99.90
15160;DHT22;7680;48.800;9.680;2023-11-18T16:35:35;7.50;99.90
15160;DHT22;7680;48.800;9.680;2023-11-18T16:40:39;7.40;99.90
15160;DHT22;7680;48.800;9.680;2023-11-18T16:45:42;7.40;99.90
15160;DHT22;7680;48.800;9.680;2023-11-18T16:50:46;7.40;99.90
15160;DHT22;7680;48.800;9.680;2023-11-18T16:55:49;7.40;99.90
15160;DHT22;7680;48.800;9.680;2023-11-18T17:00:53;7.30;99.90
15160;DHT22;7680;48.800;9.680;2023-11-18T17:05:57;7.20;99.90
15160;DHT22;7680;48.800;9.680;2023-11-18T17:11:01;7.00;99.90
15160;DHT22;7680;48.800;9.680;2023-11-18T17:16:07;7.20;99.90
15160;DHT22;7680;48.800;9.680;2023-11-18T17:21:12;6.90;99.90
15160;DHT22;7680;48.800;9.680;2023-11-18T17:26:15;7.00;99.90
15160;DHT22;7680;48.800;9.680;2023-11-18T17:31:18;7.00;99.90
15160;DHT22;7680;48.800;9.680;2023-11-18T17:36:22;7.00;99.90
15160;DHT22;7680;48.800;9.680;2023-11-18T17:41:27;7.00;99.90
15160;DHT22;7680;48.800;9.680;2023-11-18T17:46:30;7.10;99.90
15160;DHT22;7680;48.800;9.680;2023-11-18T17:51:35;7.20;99.90
15160;DHT22;7680;48.800;9.680;2023-11-18T17:56:39;7.20;99.90
15160;DHT22;7680;48.800;9.680;2023-11-18T18:01:42;7.30;99.90
15160;DHT22;7680;48.800;9.680;2023-11-18T18:06:47;7.20;99.90
15160;DHT22;7680;48.800;9.680;2023-11-18T18:11:50;7.30;99.90
15160;DHT22;7680;48.800;9.680;2023-11-18T18:16:53;7.40;99.90
15160;DHT22;7680;48.800;9.680;2023-11-18T18:21:59;7.30;99.90
15160;DHT22;7680;48.800;9.680;2023-11-18T18:27:02;7.20;99.90
15160;DHT22;7680;48.800;9.680;2023-11-18T18:32:06;7.20;99.90
15160;DHT22;7680;48.800;9.680;2023-11-18T18:37:13;7.20;99.90
15160;DHT22;7680;48.800;9.680;2023-11-18T18:42:16;7.30;99.90
15160;DHT22;7680;48.800;9.680;2023-11-18T18:47:20;7.10;99.90
15160;DHT22;7680;48.800;9.680;2023-11-18T18:52:29;6.90;99.90
15160;DHT22;7680;48.800;9.680;2023-11-18T18:57:32;6.90;99.90
15160;DHT22;7680;48.800;9.680;2023-11-18T19:02:35;6.90;99.90
15160;DHT22;7680;48.800;9.680;2023-11-18T19:07:41;6.70;99.90
15160;DHT22;7680;48.800;9.680;2023-11-18T19:12:44;6.70;99.90
15160;DHT22;7680;48.800;9.680;2023-11-18T19:17:47;6.60;99.90
15160;DHT22;7680;48.800;9.680;2023-11-18T19:22:53;6.50;99.90
15160;DHT22;7680;48.800;9.680;2023-11-18T19:27:57;6.60;99.90
15160;DHT22;7680;48.800;9.680;2023-11-18T19:33:00;6.60;99.90
15160;DHT22;7680;48.800;9.680;2023-11-18T19:38:05;6.60;99.90
15160;DHT22;7680;48.800;9.680;2023-11-18T19:43:08;6.50;99.90
15160;DHT22;7680;48.800;9.680;2023-11-18T19:48:12;6.50;99.90
15160;DHT22;7680;48.800;9.680;2023-11-18T19:53:16;6.40;99.90
15160;DHT22;7680;48.800;9.680;2023-11-18T19:58:20;6.40;99.90
15160;DHT22;7680;48.800;9.680;2023-11-18T20:03:24;6.50;99.90
15160;DHT22;7680;48.800;9.680;2023-11-18T20:08:28;6.40;99.90
15160;DHT22;7680;48.800;9.680;2023-11-18T20:13:32;6.50;99.90
15160;DHT22;7680;48.800;9.680;2023-11-18T20:18:35;6.60;99.90
15160;DHT22;7680;48.800;9.680;2023-11-18T20:23:40;6.60;99.90
15160;DHT22;7680;48.800;9.680;2023-11-18T20:28:44;6.50;99.90
15160;DHT22;7680;48.800;9.680;2023-11-18T20:33:47;6.40;99.90
15160;DHT22;7680;48.800;9.680;2023-11-18T20:38:52;6.40;99.90
15160;DHT22;7680;48.800;9.680;2023-11-18T20:43:55;6.50;99.90
15160;DHT22;7680;48.800;9.680;2023-11-18T20:48:58;6.50;99.90
15160;DHT22;7680;48.800;9.680;2023-11-18T20:54:03;6.60;99.90
15160;DHT22;7680;48.800;9.680;2023-11-18T20:59:08;6.70;99.90
15160;DHT22;7680;48.800;9.680;2023-11-18T21:04:11;6.70;99.90
15160;DHT22;7680;48.800;9.680;2023-11-18T21:09:17;6.60;99.90
15160;DHT22;7680;48.800;9.680;2023-11-18T21:14:20;6.60;99.90
15160;DHT22;7680;48.800;9.680;2023-11-18T21:19:24;6.70;99.90
15160;DHT22;7680;48.800;9.680;2023-11-18T21:24:29;6.60;99.90
15160;DHT22;7680;48.800;9.680;2023-11-18T21:29:32;6.60;99.90
15160;DHT22;7680;48.800;9.680;2023-11-18T21:34:36;6.60;99.90
15160;DHT22;7680;48.800;9.680;2023-11-18T21:39:40;6.70;99.90
15160;DHT22;7680;48.800;9.680;2023-11-18T21:44:43;6.70;99.90
15160;DHT22;7680;48.800;9.680;2023-11-18T21:49:49;6.70;99.90
15160;DHT22;7680;48.800;9.680;2023-11-18T21:54:54;6.70;99.90
15160;DHT22;7680;48.800;9.680;2023-11-18T21:59:58;6.80;99.90
15160;DHT22;7680;48.800;9.680;2023-11-18T22:05:01;6.80;99.90
15160;DHT22;7680;48.800;9.680;2023-11-18T22:10:06;6.80;99.90
15160;DHT22;7680;48.800;9.680;2023-11-18T22:15:12;6.80;99.90
15160;DHT22;7680;48.800;9.680;2023-11-18T22:20:19;6.80;99.90
15160;DHT22;7680;48.800;9.680;2023-11-18T22:25:28;6.80;99.90
15160;DHT22;7680;48.800;9.680;2023-11-18T22:30:33;6.90;99.90
15160;DHT22;7680;48.800;9.680;2023-11-18T22:35:36;6.80;99.90
15160;DHT22;7680;48.800;9.680;2023-11-18T22:40:41;6.80;99.90
15160;DHT22;7680;48.800;9.680;2023-11-18T22:45:44;6.80;99.90
15160;DHT22;7680;48.800;9.680;2023-11-18T22:50:50;6.80;99.90
15160;DHT22;7680;48.800;9.680;2023-11-18T22:55:55;6.80;99.90
15160;DHT22;7680;48.800;9.680;2023-11-18T23:00:58;6.80;99.90
15160;DHT22;7680;48.800;9.680;2023-11-18T23:06:02;6.90;99.90
15160;DHT22;7680;48.800;9.680;2023-11-18T23:11:11;6.90;99.90
15160;DHT22;7680;48.800;9.680;2023-11-18T23:16:15;6.90;99.90
15160;DHT22;7680;48.800;9.680;2023-11-18T23:21:18;6.90;99.90
15160;DHT22;7680;48.800;9.680;2023-11-18T23:26:22;6.90;99.90
15160;DHT22;7680;48.800;9.680;2023-11-18T23:31:26;6.90;99.90
15160;DHT22;7680;48.800;9.680;2023-11-18T23:36:30;6.90;99.90
15160;DHT22;7680;48.800;9.680;2023-11-18T23:41:34;6.90;99.90
15160;DHT22;7680;48.800;9.680;2023-11-18T23:46:37;6.90;99.90
15160;DHT22;7680;48.800;9.680;2023-11-18T23:51:40;7.00;99.90
15160;DHT22;7680;48.800;9.680;2023-11-18T23:56:45;7.10;99.90
